createdAt,value
2018-08-04T00:02:26.268Z,10.30
2018-08-04T00:04:55.072Z,10.17
2018-08-04T00:07:23.634Z,10.80
2018-08-04T00:09:52.313Z,10.60
2018-08-04T00:12:20.971Z,10.83
2018-08-04T00:14:49.971Z,10.40
2018-08-04T00:17:18.469Z,10.43
2018-08-04T00:19:47.149Z,9.73
2018-08-04T00:22:15.676Z,10.43
2018-08-04T00:24:44.356Z,10.83
2018-08-04T00:27:12.878Z,10.50
2018-08-04T00:29:41.559Z,11.20
2018-08-04T00:32:10.159Z,10.60
2018-08-04T00:34:38.836Z,11.70
2018-08-04T00:37:07.395Z,11.10
2018-08-04T00:39:36.252Z,11.70
2018-08-04T00:42:04.780Z,11.50
2018-08-04T00:44:33.306Z,11.50
2018-08-04T00:47:01.782Z,11.90
2018-08-04T00:49:30.344Z,11.93
2018-08-04T00:51:58.890Z,12.17
2018-08-04T00:54:27.505Z,11.17
2018-08-04T00:56:56.062Z,12.47
2018-08-04T00:59:24.724Z,11.83
2018-08-04T01:01:53.287Z,12.43
2018-08-04T01:04:21.846Z,11.60
2018-08-04T01:06:50.388Z,12.83
2018-08-04T01:09:19.040Z,12.43
2018-08-04T01:11:47.551Z,12.47
2018-08-04T01:14:16.215Z,12.60
2018-08-04T01:16:44.768Z,12.00
2018-08-04T01:19:13.554Z,12.47
2018-08-04T01:21:42.160Z,12.43
2018-08-04T01:24:10.808Z,12.60
2018-08-04T01:26:39.315Z,13.57
2018-08-04T01:29:08.077Z,13.30
2018-08-04T01:31:36.564Z,13.40
2018-08-04T01:34:05.427Z,13.53
2018-08-04T01:36:33.888Z,12.90
2018-08-04T01:39:02.480Z,12.67
2018-08-04T01:41:30.994Z,12.73
2018-08-04T01:43:59.612Z,12.87
2018-08-04T01:46:28.107Z,12.70
2018-08-04T01:48:56.947Z,12.53
2018-08-04T01:51:25.466Z,13.17
2018-08-04T01:53:54.137Z,12.63
2018-08-04T01:56:22.646Z,12.67
2018-08-04T01:58:51.495Z,12.63
2018-08-04T02:01:20.039Z,12.40
2018-08-04T02:03:48.677Z,13.17
2018-08-04T02:06:17.280Z,12.53
2018-08-04T02:08:45.961Z,12.50
2018-08-04T02:11:14.472Z,12.43
2018-08-04T02:13:43.139Z,12.43
2018-08-04T02:16:11.631Z,12.77
2018-08-04T02:18:40.017Z,12.60
2018-08-04T02:21:08.550Z,12.70
2018-08-04T02:23:37.237Z,12.60
2018-08-04T02:26:06.106Z,12.20
2018-08-04T02:28:34.800Z,13.43
2018-08-04T02:31:03.296Z,12.40
2018-08-04T02:33:32.000Z,11.93
2018-08-04T02:36:00.551Z,13.67
2018-08-04T02:38:29.199Z,13.20
2018-08-04T02:40:57.683Z,13.40
2018-08-04T02:43:26.342Z,13.47
2018-08-04T02:45:54.820Z,13.70
2018-08-04T02:48:23.478Z,13.67
2018-08-04T02:50:51.994Z,12.87
2018-08-04T02:53:20.979Z,13.67
2018-08-04T02:55:49.479Z,13.70
2018-08-04T02:58:18.144Z,13.07
2018-08-04T03:00:46.642Z,14.77
2018-08-04T03:03:15.468Z,13.80
2018-08-04T03:05:43.982Z,14.10
2018-08-04T03:08:12.819Z,14.27
2018-08-04T03:10:41.455Z,13.83
2018-08-04T03:13:10.347Z,14.33
2018-08-04T03:15:38.917Z,14.33
2018-08-04T03:18:07.565Z,14.37
2018-08-04T03:20:36.089Z,14.43
2018-08-04T03:23:04.971Z,14.43
2018-08-04T03:25:33.509Z,14.70
2018-08-04T03:28:02.194Z,14.67
2018-08-04T03:30:30.679Z,14.70
2018-08-04T03:32:59.516Z,14.70
2018-08-04T03:35:28.088Z,14.67
2018-08-04T03:37:56.792Z,14.67
2018-08-04T03:40:25.388Z,15.40
2018-08-04T03:42:54.095Z,15.13
2018-08-04T03:45:22.611Z,15.33
2018-08-04T03:47:51.444Z,14.77
2018-08-04T03:50:19.968Z,15.77
2018-08-04T03:52:48.374Z,14.47
2018-08-04T03:55:16.880Z,14.60
2018-08-04T03:57:45.480Z,13.93
2018-08-04T04:00:14.056Z,14.43
2018-08-04T04:02:42.715Z,14.50
2018-08-04T04:05:11.271Z,14.27
2018-08-04T04:07:40.001Z,14.93
2018-08-04T04:10:08.591Z,14.27
2018-08-04T04:12:37.463Z,14.70
2018-08-04T04:15:06.633Z,14.20
2018-08-04T04:17:40.970Z,14.87
2018-08-04T04:20:09.503Z,13.57
2018-08-04T04:22:38.228Z,12.60
2018-08-04T04:25:06.828Z,13.70
2018-08-04T04:27:35.597Z,13.23
2018-08-04T04:30:04.276Z,14.40
2018-08-04T04:32:33.106Z,13.77
2018-08-04T04:35:01.977Z,14.10
2018-08-04T04:37:30.831Z,14.33
2018-08-04T04:39:59.432Z,12.90
2018-08-04T04:42:28.270Z,13.03
2018-08-04T04:44:56.763Z,13.03
2018-08-04T04:47:25.452Z,12.13
2018-08-04T04:49:53.986Z,13.20
2018-08-04T04:52:22.640Z,12.03
2018-08-04T04:54:50.841Z,11.60
2018-08-04T04:57:19.627Z,13.33
2018-08-04T04:59:48.134Z,12.30
2018-08-04T05:02:16.991Z,11.33
2018-08-04T05:04:45.166Z,11.40
2018-08-04T05:07:13.675Z,10.67
2018-08-04T05:09:41.828Z,10.43
2018-08-04T05:12:10.449Z,10.50
2018-08-04T05:14:39.144Z,10.70
2018-08-04T05:17:07.670Z,10.00
2018-08-04T05:19:36.361Z,10.00
2018-08-04T05:22:04.892Z,10.50
2018-08-04T05:24:33.731Z,9.53
2018-08-04T05:27:02.239Z,9.87
2018-08-04T05:29:30.908Z,10.37
2018-08-04T05:31:59.430Z,9.97
2018-08-04T05:34:28.278Z,10.07
2018-08-04T05:36:56.779Z,9.13
2018-08-04T05:39:25.568Z,9.60
2018-08-04T05:41:54.039Z,9.90
2018-08-04T05:44:22.875Z,9.70
2018-08-04T05:46:51.341Z,9.47
2018-08-04T05:49:20.201Z,9.83
2018-08-04T05:51:48.680Z,9.30
2018-08-04T05:54:17.305Z,9.30
2018-08-04T05:56:45.464Z,9.23
2018-08-04T05:59:14.140Z,8.90
2018-08-04T06:01:42.977Z,9.07
2018-08-04T06:04:11.682Z,9.20
2018-08-04T06:06:40.192Z,8.90
2018-08-04T06:09:10.102Z,10.17
2018-08-04T06:11:39.019Z,9.13
2018-08-04T06:14:07.632Z,8.83
2018-08-04T06:16:36.147Z,9.67
2018-08-04T06:19:04.860Z,9.83
2018-08-04T06:21:33.380Z,9.63
2018-08-04T06:24:02.043Z,9.63
2018-08-04T06:26:31.429Z,9.30
2018-08-04T06:29:00.101Z,9.03
2018-08-04T06:31:28.316Z,9.90
2018-08-04T06:33:56.978Z,8.97
2018-08-04T06:36:25.455Z,10.33
2018-08-04T06:38:54.163Z,9.33
2018-08-04T06:41:22.686Z,9.63
2018-08-04T06:43:51.236Z,9.27
2018-08-04T06:46:19.403Z,9.50
2018-08-04T06:48:48.077Z,9.30
2018-08-04T06:51:16.568Z,9.30
2018-08-04T06:53:45.327Z,8.63
2018-08-04T06:56:14.176Z,8.17
2018-08-04T06:58:42.851Z,8.73
2018-08-04T07:01:11.375Z,9.97
2018-08-04T07:03:40.224Z,9.60
2018-08-04T07:06:08.798Z,9.83
2018-08-04T07:08:37.638Z,9.03
2018-08-04T07:11:06.141Z,8.77
2018-08-04T07:13:34.783Z,8.07
2018-08-04T07:16:06.110Z,7.97
2018-08-04T07:18:34.611Z,8.60
2018-08-04T07:21:03.144Z,8.00
2018-08-04T07:23:32.000Z,7.13
2018-08-04T07:26:00.555Z,7.23
2018-08-04T07:28:29.226Z,6.70
2018-08-04T07:30:57.763Z,6.53
2018-08-04T07:33:26.601Z,7.63
2018-08-04T07:35:55.171Z,7.13
2018-08-04T07:38:24.055Z,7.57
2018-08-04T07:40:52.587Z,7.63
2018-08-04T07:43:21.310Z,7.03
2018-08-04T07:45:49.810Z,7.50
2018-08-04T07:48:18.490Z,6.93
2018-08-04T07:50:46.995Z,8.07
2018-08-04T07:53:15.668Z,6.73
2018-08-04T07:55:44.304Z,6.70
2018-08-04T07:58:13.034Z,6.40
2018-08-04T08:00:41.617Z,6.17
2018-08-04T08:03:10.282Z,6.33
2018-08-04T08:05:38.804Z,6.10
2018-08-04T08:08:07.475Z,6.10
2018-08-04T08:10:36.152Z,6.00
2018-08-04T08:13:04.966Z,5.17
2018-08-04T08:15:33.521Z,6.47
2018-08-04T08:18:02.147Z,7.07
2018-08-04T08:20:30.641Z,6.80
2018-08-04T08:22:59.435Z,7.37
2018-08-04T08:25:27.984Z,8.00
2018-08-04T08:27:56.875Z,8.50
2018-08-04T08:30:25.450Z,7.77
2018-08-04T08:32:54.316Z,7.77
2018-08-04T08:35:22.834Z,7.30
2018-08-04T08:37:52.103Z,6.87
2018-08-04T08:40:20.676Z,7.23
2018-08-04T08:42:49.597Z,7.17
2018-08-04T08:45:18.162Z,7.30
2018-08-04T08:47:46.483Z,6.07
2018-08-04T08:50:15.024Z,6.07
2018-08-04T08:52:43.962Z,6.30
2018-08-04T08:55:12.467Z,6.43
2018-08-04T08:57:41.142Z,6.10
2018-08-04T09:00:11.045Z,5.83
2018-08-04T09:02:39.922Z,6.53
2018-08-04T09:05:09.250Z,5.87
2018-08-04T09:07:37.997Z,6.57
2018-08-04T09:10:09.362Z,5.40
2018-08-04T09:12:38.343Z,6.97
2018-08-04T09:15:07.285Z,6.47
2018-08-04T09:17:36.152Z,6.70
2018-08-04T09:20:06.028Z,6.67
2018-08-04T09:22:34.719Z,6.30
2018-08-04T09:25:03.237Z,5.83
2018-08-04T09:27:31.839Z,5.90
2018-08-04T09:30:00.427Z,6.30
2018-08-04T09:32:29.163Z,6.00
2018-08-04T09:34:57.716Z,6.37
2018-08-04T09:37:26.412Z,5.73
2018-08-04T09:39:54.989Z,7.03
2018-08-04T09:42:23.471Z,6.43
2018-08-04T09:44:51.984Z,6.50
2018-08-04T09:47:20.671Z,6.35
2018-08-04T09:49:49.171Z,6.53
2018-08-04T09:52:17.821Z,6.50
2018-08-04T09:54:46.376Z,6.28
2018-08-04T09:57:15.232Z,5.92
2018-08-04T09:59:43.828Z,6.60
2018-08-04T10:02:13.485Z,6.47
2018-08-04T10:04:42.236Z,6.87
2018-08-04T10:07:10.918Z,6.55
2018-08-04T10:09:39.477Z,7.50
2018-08-04T10:12:08.328Z,7.40
2018-08-04T10:14:36.911Z,7.28
2018-08-04T10:17:05.829Z,6.45
2018-08-04T10:19:33.988Z,6.60
2018-08-04T10:22:02.549Z,6.70
2018-08-04T10:24:31.720Z,6.85
2018-08-04T10:27:00.280Z,6.75
2018-08-04T10:29:28.974Z,5.65
2018-08-04T10:31:57.617Z,6.65
2018-08-04T10:34:26.606Z,6.60
2018-08-04T10:36:54.829Z,6.40
2018-08-04T10:39:23.526Z,6.87
2018-08-04T10:41:52.048Z,7.05
2018-08-04T10:44:20.725Z,6.50
2018-08-04T10:46:49.243Z,7.17
2018-08-04T10:49:17.725Z,6.67
2018-08-04T10:51:46.451Z,6.65
2018-08-04T10:54:14.957Z,6.22
2018-08-04T10:56:43.474Z,7.12
2018-08-04T10:59:12.042Z,7.17
2018-08-04T11:01:40.796Z,7.60
2018-08-04T11:04:09.329Z,7.47
2018-08-04T11:06:38.051Z,7.05
2018-08-04T11:09:08.999Z,7.20
2018-08-04T11:11:37.751Z,7.15
2018-08-04T11:14:06.947Z,7.00
2018-08-04T11:16:36.005Z,7.28
2018-08-04T11:19:04.612Z,6.37
2018-08-04T11:21:33.316Z,6.70
2018-08-04T11:24:01.886Z,7.50
2018-08-04T11:26:30.542Z,6.40
2018-08-04T11:28:59.088Z,6.90
2018-08-04T11:31:27.878Z,6.78
2018-08-04T11:33:56.600Z,7.45
2018-08-04T11:36:25.374Z,6.92
2018-08-04T11:38:53.916Z,6.78
2018-08-04T11:41:22.567Z,6.92
2018-08-04T11:43:51.321Z,7.00
2018-08-04T11:46:20.007Z,7.05
2018-08-04T11:48:48.531Z,6.55
2018-08-04T11:51:17.251Z,6.33
2018-08-04T11:53:45.779Z,6.72
2018-08-04T11:56:14.526Z,8.08
2018-08-04T11:58:43.085Z,6.83
2018-08-04T12:01:11.960Z,7.62
2018-08-04T12:03:40.529Z,6.72
2018-08-04T12:06:09.211Z,6.60
2018-08-04T12:08:37.771Z,6.42
2018-08-04T12:11:06.765Z,7.08
2018-08-04T12:13:35.419Z,6.03
2018-08-04T12:16:04.239Z,6.62
2018-08-04T12:18:32.875Z,6.92
2018-08-04T12:21:01.588Z,7.03
2018-08-04T12:23:30.116Z,6.67
2018-08-04T12:25:58.968Z,5.97
2018-08-04T12:28:27.535Z,6.78
2018-08-04T12:30:55.994Z,6.42
2018-08-04T12:33:24.682Z,6.87
2018-08-04T12:35:53.336Z,6.40
2018-08-04T12:38:21.933Z,6.95
2018-08-04T12:40:50.807Z,6.87
2018-08-04T12:43:19.357Z,6.45
2018-08-04T12:45:48.241Z,6.78
2018-08-04T12:48:16.788Z,6.28
2018-08-04T12:50:45.706Z,7.30
2018-08-04T12:53:14.222Z,7.03
2018-08-04T12:55:43.255Z,6.70
2018-08-04T12:58:11.769Z,6.42
2018-08-04T13:00:40.641Z,6.40
2018-08-04T13:03:09.168Z,6.70
2018-08-04T13:05:38.187Z,6.62
2018-08-04T13:08:06.848Z,6.70
2018-08-04T13:10:35.534Z,6.17
2018-08-04T13:13:04.101Z,6.47
2018-08-04T13:15:33.065Z,6.92
2018-08-04T13:18:01.638Z,6.92
2018-08-04T13:20:30.664Z,6.55
2018-08-04T13:22:59.238Z,6.37
2018-08-04T13:25:28.123Z,6.97
2018-08-04T13:27:56.680Z,6.87
2018-08-04T13:30:25.573Z,6.20
2018-08-04T13:32:54.147Z,6.85
2018-08-04T13:35:23.094Z,6.40
2018-08-04T13:37:51.672Z,6.62
2018-08-04T13:40:20.327Z,7.10
2018-08-04T13:42:48.626Z,6.37
2018-08-04T13:45:17.546Z,6.20
2018-08-04T13:47:45.778Z,6.00
2018-08-04T13:50:14.482Z,6.35
2018-08-04T13:52:43.156Z,6.20
2018-08-04T13:55:11.793Z,6.45
2018-08-04T13:57:40.489Z,6.45
2018-08-04T14:00:09.355Z,5.97
2018-08-04T14:02:37.906Z,6.40
2018-08-04T14:05:06.947Z,6.60
2018-08-04T14:07:35.557Z,6.50
2018-08-04T14:10:04.507Z,6.53
2018-08-04T14:12:33.102Z,6.37
2018-08-04T14:15:02.020Z,6.20
2018-08-04T14:17:30.706Z,6.30
2018-08-04T14:19:59.556Z,6.10
2018-08-04T14:22:27.788Z,6.47
2018-08-04T14:24:56.846Z,6.85
2018-08-04T14:27:25.463Z,6.70
2018-08-04T14:29:54.380Z,6.58
2018-08-04T14:32:22.940Z,6.80
2018-08-04T14:34:52.028Z,6.22
2018-08-04T14:37:20.675Z,6.15
2018-08-04T14:39:49.535Z,6.85
2018-08-04T14:42:18.305Z,6.67
2018-08-04T14:44:47.364Z,6.67
2018-08-04T14:47:16.077Z,6.72
2018-08-04T14:49:44.978Z,6.62
2018-08-04T14:52:13.736Z,6.65
2018-08-04T14:54:42.225Z,6.47
2018-08-04T14:57:10.903Z,6.53
2018-08-04T14:59:39.888Z,6.92
2018-08-04T15:02:08.714Z,6.28
2018-08-04T15:04:37.843Z,6.70
2018-08-04T15:07:06.619Z,7.05
2018-08-04T15:09:35.563Z,7.85
2018-08-04T15:12:04.399Z,6.50
2018-08-04T15:14:33.331Z,6.25
2018-08-04T15:17:03.027Z,5.97
2018-08-04T15:19:31.866Z,6.80
2018-08-04T15:22:00.670Z,7.33
2018-08-04T15:24:29.734Z,7.30
2018-08-04T15:26:58.467Z,7.95
2018-08-04T15:29:27.778Z,7.72
2018-08-04T15:31:56.537Z,8.40
2018-08-04T15:34:25.848Z,8.55
2018-08-04T15:36:54.901Z,7.83
2018-08-04T15:39:23.746Z,8.05
2018-08-04T15:41:52.431Z,8.25
2018-08-04T15:44:21.445Z,7.83
2018-08-04T15:46:50.189Z,8.08
2018-08-04T15:49:19.064Z,7.53
2018-08-04T15:51:47.869Z,8.23
2018-08-04T15:54:16.589Z,8.25
2018-08-04T15:56:45.156Z,8.18
2018-08-04T15:59:14.079Z,8.33
2018-08-04T16:01:42.780Z,7.72
2018-08-04T16:04:11.842Z,8.10
2018-08-04T16:06:40.438Z,8.35
2018-08-04T16:09:10.673Z,8.43
2018-08-04T16:11:39.950Z,8.15
2018-08-04T16:14:08.940Z,8.70
2018-08-04T16:16:38.127Z,8.93
2018-08-04T16:19:07.015Z,8.50
2018-08-04T16:21:35.487Z,9.23
2018-08-04T16:24:04.112Z,9.23
2018-08-04T16:26:32.609Z,8.95
2018-08-04T16:29:01.425Z,8.95
2018-08-04T16:31:29.879Z,8.93
2018-08-04T16:33:58.059Z,9.20
2018-08-04T16:36:26.512Z,9.63
2018-08-04T16:38:55.472Z,10.08
2018-08-04T16:41:23.983Z,10.43
2018-08-04T16:43:52.746Z,10.90
2018-08-04T16:46:21.289Z,10.63
2018-08-04T16:48:49.902Z,10.30
2018-08-04T16:51:18.363Z,9.23
2018-08-04T16:53:47.213Z,10.25
2018-08-04T16:56:15.746Z,10.63
2018-08-04T16:58:44.374Z,10.90
2018-08-04T17:01:12.910Z,10.25
2018-08-04T17:03:41.586Z,10.15
2018-08-04T17:06:10.124Z,9.08
2018-08-04T17:08:38.750Z,9.58
2018-08-04T17:11:07.253Z,9.38
2018-08-04T17:13:35.928Z,9.05
2018-08-04T17:16:04.629Z,8.58
2018-08-04T17:18:33.589Z,9.28
2018-08-04T17:21:02.076Z,12.85
2018-08-04T17:23:30.820Z,11.23
2018-08-04T17:25:59.358Z,11.07
2018-08-04T17:28:28.099Z,10.53
2018-08-04T17:30:56.691Z,10.50
2018-08-04T17:33:25.428Z,9.47
2018-08-04T17:35:54.352Z,10.17
2018-08-04T17:38:23.374Z,9.23
2018-08-04T17:40:51.939Z,9.67
2018-08-04T17:43:20.629Z,9.43
2018-08-04T17:45:49.225Z,10.23
2018-08-04T17:48:17.959Z,8.80
2018-08-04T17:50:46.533Z,9.17
2018-08-04T17:53:15.329Z,10.57
2018-08-04T17:55:43.856Z,10.50
2018-08-04T17:58:12.688Z,11.00
2018-08-04T18:00:41.248Z,10.23
2018-08-04T18:03:09.941Z,9.20
2018-08-04T18:05:38.532Z,9.10
2018-08-04T18:08:07.256Z,9.57
2018-08-04T18:10:35.759Z,11.03
2018-08-04T18:13:04.672Z,11.73
2018-08-04T18:15:33.208Z,11.20
2018-08-04T18:18:02.097Z,10.73
2018-08-04T18:20:30.630Z,10.57
2018-08-04T18:22:59.528Z,11.17
2018-08-04T18:25:28.121Z,11.93
2018-08-04T18:27:56.729Z,11.13
2018-08-04T18:30:25.402Z,11.30
2018-08-04T18:32:54.093Z,11.00
2018-08-04T18:35:22.633Z,12.40
2018-08-04T18:37:51.308Z,11.90
2018-08-04T18:40:19.854Z,12.20
2018-08-04T18:42:48.516Z,11.47
2018-08-04T18:45:17.027Z,10.67
2018-08-04T18:47:45.682Z,10.97
2018-08-04T18:50:14.287Z,11.77
2018-08-04T18:52:43.056Z,11.70
2018-08-04T18:55:11.617Z,11.33
2018-08-04T18:57:40.379Z,10.73
2018-08-04T19:00:08.926Z,9.93
2018-08-04T19:02:37.192Z,8.90
2018-08-04T19:05:05.796Z,9.20
2018-08-04T19:07:34.460Z,9.30
2018-08-04T19:10:03.022Z,9.50
2018-08-04T19:12:31.873Z,10.40
2018-08-04T19:15:00.054Z,10.57
2018-08-04T19:17:28.557Z,11.10
2018-08-04T19:19:57.440Z,9.50
2018-08-04T19:22:25.664Z,9.60
2018-08-04T19:24:54.336Z,10.93
2018-08-04T19:27:22.870Z,11.07
2018-08-04T19:29:51.571Z,11.50
2018-08-04T19:32:20.099Z,11.53
2018-08-04T19:34:48.792Z,11.87
2018-08-04T19:37:17.386Z,11.50
2018-08-04T19:39:46.163Z,12.07
2018-08-04T19:42:14.748Z,11.90
2018-08-04T19:44:43.707Z,12.73
2018-08-04T19:47:12.294Z,12.30
2018-08-04T19:49:40.908Z,13.80
2018-08-04T19:52:09.458Z,13.53
2018-08-04T19:54:38.278Z,13.00
2018-08-04T19:57:06.866Z,13.67
2018-08-04T19:59:35.807Z,15.23
2018-08-04T20:02:04.344Z,14.70
2018-08-04T20:04:33.064Z,13.67
2018-08-04T20:07:01.567Z,14.23
2018-08-04T20:09:30.219Z,15.03
2018-08-04T20:11:58.781Z,15.57
2018-08-04T20:14:27.488Z,16.20
2018-08-04T20:16:56.070Z,16.20
2018-08-04T20:19:24.812Z,15.70
2018-08-04T20:21:53.365Z,14.37
2018-08-04T20:24:22.108Z,14.90
2018-08-04T20:26:50.865Z,15.20
2018-08-04T20:29:19.644Z,15.30
2018-08-04T20:31:48.180Z,15.37
2018-08-04T20:34:16.873Z,15.70
2018-08-04T20:36:45.037Z,15.13
2018-08-04T20:39:13.612Z,14.03
2018-08-04T20:41:42.339Z,14.27
2018-08-04T20:44:10.918Z,13.57
2018-08-04T20:46:39.638Z,13.37
2018-08-04T20:49:08.331Z,14.83
2018-08-04T20:51:36.924Z,14.47
2018-08-04T20:54:05.589Z,13.90
2018-08-04T20:56:34.365Z,14.23
2018-08-04T20:59:02.915Z,14.00
2018-08-04T21:01:48.644Z,13.53
2018-08-04T21:04:17.504Z,13.83
2018-08-04T21:06:46.281Z,14.20
2018-08-04T21:09:15.208Z,13.93
2018-08-04T21:11:50.975Z,13.90
2018-08-04T21:14:20.696Z,13.87
2018-08-04T21:16:50.363Z,14.10
2018-08-04T21:19:19.900Z,13.93
2018-08-04T21:21:48.599Z,13.63
2018-08-04T21:24:18.058Z,14.63
2018-08-04T21:26:47.316Z,13.53
2018-08-04T21:29:15.933Z,13.83
2018-08-04T21:31:44.750Z,13.70
2018-08-04T21:34:13.773Z,13.57
2018-08-04T21:36:43.641Z,14.33
2018-08-04T21:39:14.356Z,13.33
2018-08-04T21:41:43.938Z,13.20
2018-08-04T21:44:12.963Z,13.47
2018-08-04T21:46:45.107Z,16.43
2018-08-04T21:49:14.268Z,16.47
2018-08-04T21:51:45.182Z,18.00
2018-08-04T21:54:19.914Z,19.70
2018-08-04T21:56:44.036Z,18.93
2018-08-04T21:59:12.741Z,18.73
2018-08-04T22:01:47.227Z,19.37
2018-08-04T22:04:15.828Z,19.80
2018-08-04T22:07:58.220Z,19.97
2018-08-04T22:10:27.230Z,19.40
2018-08-04T22:12:56.193Z,20.30
2018-08-04T22:15:25.131Z,19.73
2018-08-04T22:17:54.030Z,19.60
2018-08-04T22:20:23.248Z,21.67
2018-08-04T22:22:52.037Z,20.30
2018-08-04T22:25:22.036Z,21.47
2018-08-04T22:27:51.313Z,21.10
2018-08-04T22:30:21.311Z,20.40
2018-08-04T22:32:50.496Z,20.30
2018-08-04T22:35:19.373Z,20.93
2018-08-04T22:37:48.259Z,20.93
2018-08-04T22:40:17.622Z,20.63
2018-08-04T22:42:46.594Z,22.37
2018-08-04T22:46:06.121Z,21.53
2018-08-04T22:48:35.164Z,21.60
2018-08-04T22:51:03.830Z,22.10
2018-08-04T22:53:32.640Z,21.63
2018-08-04T22:56:01.247Z,21.60
2018-08-04T22:58:29.907Z,22.83
2018-08-04T23:00:59.377Z,20.87
2018-08-04T23:03:28.237Z,21.83
2018-08-04T23:05:56.741Z,20.67
2018-08-04T23:08:25.690Z,21.37
2018-08-04T23:10:54.258Z,22.23
2018-08-04T23:13:23.184Z,21.97
2018-08-04T23:15:51.753Z,22.17
2018-08-04T23:18:20.491Z,20.80
2018-08-04T23:20:48.996Z,21.73
2018-08-04T23:23:17.820Z,20.70
2018-08-04T23:25:45.989Z,23.40
2018-08-04T23:28:14.577Z,23.47
2018-08-04T23:30:43.071Z,24.17
2018-08-04T23:33:11.941Z,23.53
2018-08-04T23:35:40.493Z,23.80
2018-08-04T23:38:09.214Z,23.50
2018-08-04T23:40:37.758Z,20.90
2018-08-04T23:43:06.439Z,20.50
2018-08-04T23:45:34.656Z,19.50
2018-08-04T23:48:03.426Z,19.77
2018-08-04T23:50:32.010Z,19.37
2018-08-04T23:53:00.628Z,18.73
2018-08-04T23:55:29.197Z,19.57
2018-08-04T23:57:57.915Z,18.33
